createdAt,value
2023-03-26T19:30:47.645Z,4.68
2023-03-26T19:33:19.925Z,4.61
2023-03-26T19:36:01.255Z,4.62
2023-03-26T19:38:33.019Z,4.63
2023-03-26T19:41:02.615Z,4.61
2023-03-26T19:43:31.998Z,4.62
2023-03-26T19:46:01.536Z,4.61
2023-03-26T19:48:45.342Z,4.57
2023-03-26T19:51:07.424Z,4.62
2023-03-26T19:53:39.505Z,4.63
2023-03-26T19:56:19.338Z,4.60
2023-03-26T19:58:50.254Z,4.59
2023-03-26T20:01:23.823Z,4.57
2023-03-26T20:03:59.510Z,4.57
2023-03-26T20:06:41.767Z,4.55
2023-03-26T20:09:01.262Z,4.56
2023-03-26T20:11:38.078Z,4.57
2023-03-26T20:14:20.578Z,4.55
2023-03-26T20:16:50.052Z,4.53
2023-03-26T20:19:20.681Z,4.46
2023-03-26T20:21:50.051Z,4.40
2023-03-26T20:24:21.614Z,4.33
2023-03-26T20:26:51.015Z,4.36
2023-03-26T20:29:20.703Z,4.35
2023-03-26T20:31:50.184Z,4.39
2023-03-26T20:34:22.537Z,4.36
2023-03-26T20:36:57.132Z,4.37
2023-03-26T20:39:28.452Z,4.33
2023-03-26T20:41:58.052Z,4.25
2023-03-26T20:44:28.168Z,4.12
2023-03-26T20:46:59.292Z,4.02
2023-03-26T20:49:29.482Z,3.98
2023-03-26T20:51:59.824Z,3.88
2023-03-26T20:54:30.773Z,3.86
2023-03-26T20:57:00.401Z,3.89
2023-03-26T20:59:30.630Z,4.02
2023-03-26T21:02:00.425Z,4.06
2023-03-26T21:04:30.148Z,4.06
2023-03-26T21:07:11.155Z,4.03
2023-03-26T21:09:33.068Z,4.07
2023-03-26T21:12:17.821Z,4.05
2023-03-26T21:14:48.107Z,4.00
2023-03-26T21:17:20.721Z,3.95
2023-03-26T21:19:50.732Z,3.91
2023-03-26T21:22:26.307Z,3.94
2023-03-26T21:25:07.770Z,3.95
2023-03-26T21:28:17.184Z,4.00
2023-03-26T21:30:48.886Z,3.94
2023-03-26T21:33:23.031Z,3.77
2023-03-26T21:35:58.590Z,3.78
2023-03-26T21:38:33.800Z,3.69
2023-03-26T21:41:05.238Z,3.58
2023-03-26T21:43:38.199Z,3.45
2023-03-26T21:46:14.678Z,3.42
2023-03-26T21:48:48.390Z,3.29
2023-03-26T21:51:22.587Z,3.37
2023-03-26T21:53:52.418Z,3.40
2023-03-26T21:56:37.050Z,3.50
2023-03-26T21:59:18.577Z,3.54
2023-03-26T22:02:15.516Z,3.56
2023-03-26T22:04:53.838Z,3.51
2023-03-26T22:07:34.876Z,3.41
2023-03-26T22:10:05.118Z,3.30
2023-03-26T22:12:34.418Z,3.28
2023-03-26T22:15:05.165Z,3.41
2023-03-26T22:17:34.463Z,3.38
2023-03-26T22:20:05.863Z,3.43
2023-03-26T22:22:35.381Z,3.39
2023-03-26T22:25:04.916Z,3.42
2023-03-26T22:27:34.748Z,3.53
2023-03-26T22:30:08.214Z,3.53
2023-03-26T22:32:37.639Z,3.54
2023-03-26T22:35:07.895Z,3.44
2023-03-26T22:37:37.803Z,3.35
2023-03-26T22:40:09.088Z,3.30
2023-03-26T22:42:38.588Z,3.24
2023-03-26T22:45:09.480Z,3.24
2023-03-26T22:47:39.105Z,3.21
2023-03-26T22:50:09.483Z,3.18
2023-03-26T22:52:40.660Z,3.13
2023-03-26T22:55:11.607Z,3.23
2023-03-26T22:57:41.522Z,3.37
2023-03-26T23:00:16.718Z,3.36
2023-03-26T23:02:47.134Z,3.43
2023-03-26T23:05:20.421Z,3.51
2023-03-26T23:07:50.004Z,3.54
2023-03-26T23:10:19.385Z,3.54
2023-03-26T23:12:49.754Z,3.49
2023-03-26T23:15:20.507Z,3.48
2023-03-26T23:17:54.878Z,3.54
2023-03-26T23:20:22.589Z,3.56
2023-03-26T23:22:52.790Z,3.59
2023-03-26T23:25:22.077Z,3.62
2023-03-26T23:27:51.520Z,3.59
2023-03-26T23:30:20.881Z,3.55
2023-03-26T23:32:50.680Z,3.54
2023-03-26T23:35:20.078Z,3.61
2023-03-26T23:37:50.900Z,3.57
2023-03-26T23:40:21.105Z,3.56
2023-03-26T23:42:50.434Z,3.54
2023-03-26T23:45:20.134Z,3.52
2023-03-26T23:47:49.426Z,3.58
2023-03-26T23:50:19.026Z,3.67
2023-03-26T23:52:48.335Z,3.68
2023-03-26T23:55:17.861Z,3.75
2023-03-26T23:57:47.604Z,3.70
